sensor_id;sensor_type;location;lat;lon;timestamp;pressure;altitude;pressure_sealevel;temperature;humidity
11712;BME280;5912;51.034;6.984;2022-08-16T00:00:29;100007.84;;;21.84;82.70
11712;BME280;5912;51.034;6.984;2022-08-16T00:02:58;100015.13;;;21.83;83.26
11712;BME280;5912;51.034;6.984;2022-08-16T00:05:26;100011.63;;;21.83;83.50
11712;BME280;5912;51.034;6.984;2022-08-16T00:07:52;100007.97;;;21.79;83.11
11712;BME280;5912;51.034;6.984;2022-08-16T00:10:19;100010.94;;;21.77;82.86
11712;BME280;5912;51.034;6.984;2022-08-16T00:12:45;100018.44;;;21.75;83.52
11712;BME280;5912;51.034;6.984;2022-08-16T00:15:18;100024.06;;;21.74;83.40
11712;BME280;5912;51.034;6.984;2022-08-16T00:17:44;100022.75;;;21.71;84.00
11712;BME280;5912;51.034;6.984;2022-08-16T00:20:10;100028.97;;;21.67;83.41
11712;BME280;5912;51.034;6.984;2022-08-16T00:22:38;100020.16;;;21.66;83.27
11712;BME280;5912;51.034;6.984;2022-08-16T00:25:07;100021.47;;;21.69;83.50
11712;BME280;5912;51.034;6.984;2022-08-16T00:27:33;100021.53;;;21.64;83.75
11712;BME280;5912;51.034;6.984;2022-08-16T00:29:59;100030.66;;;21.63;83.79
11712;BME280;5912;51.034;6.984;2022-08-16T00:32:24;100034.91;;;21.64;83.84
11712;BME280;5912;51.034;6.984;2022-08-16T00:34:49;100040.03;;;21.60;84.57
11712;BME280;5912;51.034;6.984;2022-08-16T00:37:16;100030.44;;;21.59;84.20
11712;BME280;5912;51.034;6.984;2022-08-16T00:39:42;100013.81;;;21.44;84.36
11712;BME280;5912;51.034;6.984;2022-08-16T00:42:07;100032.19;;;21.50;84.52
11712;BME280;5912;51.034;6.984;2022-08-16T00:44:33;100032.66;;;21.52;84.48
11712;BME280;5912;51.034;6.984;2022-08-16T00:47:04;100034.56;;;21.52;84.48
11712;BME280;5912;51.034;6.984;2022-08-16T00:49:34;100044.47;;;21.51;85.23
11712;BME280;5912;51.034;6.984;2022-08-16T00:51:59;100038.59;;;21.49;84.77
11712;BME280;5912;51.034;6.984;2022-08-16T00:54:29;100022.72;;;21.39;84.85
11712;BME280;5912;51.034;6.984;2022-08-16T00:56:57;100037.00;;;21.48;85.67
11712;BME280;5912;51.034;6.984;2022-08-16T00:59:24;100038.09;;;21.47;85.69
11712;BME280;5912;51.034;6.984;2022-08-16T01:01:52;100020.09;;;21.34;85.63
11712;BME280;5912;51.034;6.984;2022-08-16T01:04:21;100036.28;;;21.43;85.55
11712;BME280;5912;51.034;6.984;2022-08-16T01:06:48;99993.19;;;21.07;85.59
11712;BME280;5912;51.034;6.984;2022-08-16T01:09:13;100038.19;;;21.42;86.02
11712;BME280;5912;51.034;6.984;2022-08-16T01:11:40;100042.50;;;21.38;86.02
11712;BME280;5912;51.034;6.984;2022-08-16T01:14:14;100037.50;;;21.32;86.40
11712;BME280;5912;51.034;6.984;2022-08-16T01:16:41;100043.66;;;21.32;86.49
11712;BME280;5912;51.034;6.984;2022-08-16T01:19:25;100042.06;;;21.31;86.21
11712;BME280;5912;51.034;6.984;2022-08-16T01:21:56;100037.06;;;21.25;86.48
11712;BME280;5912;51.034;6.984;2022-08-16T01:24:32;100045.38;;;21.23;87.00
11712;BME280;5912;51.034;6.984;2022-08-16T01:27:04;100043.50;;;21.24;87.03
11712;BME280;5912;51.034;6.984;2022-08-16T01:29:37;100041.69;;;21.19;86.92
11712;BME280;5912;51.034;6.984;2022-08-16T01:32:04;100039.59;;;21.16;86.88
11712;BME280;5912;51.034;6.984;2022-08-16T01:34:29;100037.19;;;21.15;87.24
11712;BME280;5912;51.034;6.984;2022-08-16T01:37:05;100034.53;;;21.15;86.88
11712;BME280;5912;51.034;6.984;2022-08-16T01:39:32;100031.63;;;21.11;87.75
11712;BME280;5912;51.034;6.984;2022-08-16T01:41:58;100022.03;;;21.10;87.92
11712;BME280;5912;51.034;6.984;2022-08-16T01:44:24;100018.59;;;21.05;87.46
11712;BME280;5912;51.034;6.984;2022-08-16T01:46:50;100022.59;;;21.07;87.78
11712;BME280;5912;51.034;6.984;2022-08-16T01:49:19;100024.81;;;21.00;88.04
11712;BME280;5912;51.034;6.984;2022-08-16T01:51:50;100028.81;;;21.03;88.06
11712;BME280;5912;51.034;6.984;2022-08-16T01:54:15;100003.09;;;20.83;87.62
11712;BME280;5912;51.034;6.984;2022-08-16T01:56:41;100029.94;;;20.97;88.32
11712;BME280;5912;51.034;6.984;2022-08-16T01:59:09;100028.06;;;20.97;88.01
11712;BME280;5912;51.034;6.984;2022-08-16T02:01:35;100035.03;;;20.93;88.49
11712;BME280;5912;51.034;6.984;2022-08-16T02:04:01;100032.44;;;20.88;88.28
11712;BME280;5912;51.034;6.984;2022-08-16T02:06:27;100035.97;;;20.84;88.63
11712;BME280;5912;51.034;6.984;2022-08-16T02:08:53;100039.41;;;20.84;88.98
11712;BME280;5912;51.034;6.984;2022-08-16T02:11:20;100031.97;;;20.81;88.97
11712;BME280;5912;51.034;6.984;2022-08-16T02:13:58;100029.00;;;20.83;88.72
11712;BME280;5912;51.034;6.984;2022-08-16T02:16:23;100034.63;;;20.81;88.95
11712;BME280;5912;51.034;6.984;2022-08-16T02:18:50;100022.09;;;20.82;89.30
11712;BME280;5912;51.034;6.984;2022-08-16T02:21:16;100035.44;;;20.82;89.25
11712;BME280;5912;51.034;6.984;2022-08-16T02:23:43;100031.16;;;20.81;89.24
11712;BME280;5912;51.034;6.984;2022-08-16T02:26:09;100027.19;;;20.78;89.21
11712;BME280;5912;51.034;6.984;2022-08-16T02:28:34;100030.44;;;20.75;88.77
11712;BME280;5912;51.034;6.984;2022-08-16T02:31:05;100020.59;;;20.71;88.76
11712;BME280;5912;51.034;6.984;2022-08-16T02:33:31;100029.19;;;20.68;88.90
11712;BME280;5912;51.034;6.984;2022-08-16T02:35:56;100022.81;;;20.64;89.63
11712;BME280;5912;51.034;6.984;2022-08-16T02:38:22;100025.75;;;20.62;90.04
11712;BME280;5912;51.034;6.984;2022-08-16T02:40:47;100019.41;;;20.58;90.17
11712;BME280;5912;51.034;6.984;2022-08-16T02:43:13;100025.53;;;20.58;89.89
11712;BME280;5912;51.034;6.984;2022-08-16T02:45:38;100025.81;;;20.57;90.06
11712;BME280;5912;51.034;6.984;2022-08-16T02:48:04;100026.38;;;20.54;90.36
11712;BME280;5912;51.034;6.984;2022-08-16T02:50:30;100030.91;;;20.53;90.33
11712;BME280;5912;51.034;6.984;2022-08-16T02:52:55;100022.69;;;20.50;90.11
11712;BME280;5912;51.034;6.984;2022-08-16T02:55:21;100022.97;;;20.48;90.50
11712;BME280;5912;51.034;6.984;2022-08-16T02:57:46;100016.59;;;20.44;91.14
11712;BME280;5912;51.034;6.984;2022-08-16T03:00:13;99950.03;;;20.01;91.15
11712;BME280;5912;51.034;6.984;2022-08-16T03:02:40;100011.31;;;20.39;91.31
11712;BME280;5912;51.034;6.984;2022-08-16T03:05:07;100022.22;;;20.43;91.16
11712;BME280;5912;51.034;6.984;2022-08-16T03:07:34;100016.16;;;20.37;91.73
11712;BME280;5912;51.034;6.984;2022-08-16T03:09:59;100023.34;;;20.37;92.14
11712;BME280;5912;51.034;6.984;2022-08-16T03:12:24;100016.69;;;20.34;92.50
11712;BME280;5912;51.034;6.984;2022-08-16T03:14:50;100016.97;;;20.33;92.28
11712;BME280;5912;51.034;6.984;2022-08-16T03:17:16;100018.34;;;20.30;92.48
11712;BME280;5912;51.034;6.984;2022-08-16T03:19:41;100013.84;;;20.26;92.86
11712;BME280;5912;51.034;6.984;2022-08-16T03:22:07;100021.34;;;20.24;92.67
11712;BME280;5912;51.034;6.984;2022-08-16T03:24:32;100026.16;;;20.22;92.49
11712;BME280;5912;51.034;6.984;2022-08-16T03:26:59;100023.28;;;20.18;92.72
11712;BME280;5912;51.034;6.984;2022-08-16T03:29:26;100023.81;;;20.15;92.54
11712;BME280;5912;51.034;6.984;2022-08-16T03:31:52;100027.28;;;20.11;93.04
11712;BME280;5912;51.034;6.984;2022-08-16T03:34:18;100027.84;;;20.08;93.30
11712;BME280;5912;51.034;6.984;2022-08-16T03:36:44;100041.44;;;20.11;92.93
11712;BME280;5912;51.034;6.984;2022-08-16T03:39:09;100051.03;;;20.12;93.44
11712;BME280;5912;51.034;6.984;2022-08-16T03:41:35;100045.19;;;20.10;93.30
11712;BME280;5912;51.034;6.984;2022-08-16T03:44:01;100034.84;;;20.04;92.95
11712;BME280;5912;51.034;6.984;2022-08-16T03:46:27;100039.34;;;20.08;93.27
11712;BME280;5912;51.034;6.984;2022-08-16T03:48:53;100035.34;;;20.06;92.98
11712;BME280;5912;51.034;6.984;2022-08-16T03:51:20;100038.53;;;20.08;93.01
11712;BME280;5912;51.034;6.984;2022-08-16T03:53:46;100033.50;;;20.01;93.20
11712;BME280;5912;51.034;6.984;2022-08-16T03:56:11;100042.81;;;20.09;93.16
11712;BME280;5912;51.034;6.984;2022-08-16T03:58:37;100039.63;;;20.07;93.14
11712;BME280;5912;51.034;6.984;2022-08-16T04:01:03;100039.09;;;20.05;93.40
11712;BME280;5912;51.034;6.984;2022-08-16T04:03:29;100038.84;;;20.01;93.20
11712;BME280;5912;51.034;6.984;2022-08-16T04:05:55;100048.97;;;20.04;93.24
11712;BME280;5912;51.034;6.984;2022-08-16T04:08:20;100046.56;;;20.03;93.20
11712;BME280;5912;51.034;6.984;2022-08-16T04:10:47;100042.28;;;20.07;93.20
11712;BME280;5912;51.034;6.984;2022-08-16T04:13:12;100050.81;;;20.09;93.05
11712;BME280;5912;51.034;6.984;2022-08-16T04:15:38;100047.88;;;20.10;92.76
11712;BME280;5912;51.034;6.984;2022-08-16T04:18:04;100056.16;;;20.09;92.57
11712;BME280;5912;51.034;6.984;2022-08-16T04:20:30;100063.63;;;20.07;92.82
11712;BME280;5912;51.034;6.984;2022-08-16T04:22:56;100062.59;;;20.03;93.21
11712;BME280;5912;51.034;6.984;2022-08-16T04:25:22;100055.94;;;20.00;93.38
11712;BME280;5912;51.034;6.984;2022-08-16T04:27:47;100060.47;;;20.00;93.34
11712;BME280;5912;51.034;6.984;2022-08-16T04:30:15;100059.41;;;20.01;93.09
11712;BME280;5912;51.034;6.984;2022-08-16T04:32:42;100058.38;;;19.97;93.22
11712;BME280;5912;51.034;6.984;2022-08-16T04:35:10;100068.47;;;20.00;93.29
11712;BME280;5912;51.034;6.984;2022-08-16T04:37:36;100056.03;;;19.85;93.83
11712;BME280;5912;51.034;6.984;2022-08-16T04:40:02;100065.84;;;19.95;93.44
11712;BME280;5912;51.034;6.984;2022-08-16T04:42:28;100072.00;;;19.95;93.56
11712;BME280;5912;51.034;6.984;2022-08-16T04:44:53;100062.13;;;19.96;94.00
11712;BME280;5912;51.034;6.984;2022-08-16T04:47:20;100077.25;;;20.05;93.98
11712;BME280;5912;51.034;6.984;2022-08-16T04:49:45;100073.25;;;20.03;93.49
11712;BME280;5912;51.034;6.984;2022-08-16T04:52:11;100074.84;;;20.09;93.22
11712;BME280;5912;51.034;6.984;2022-08-16T04:54:36;100071.06;;;20.10;93.46
11712;BME280;5912;51.034;6.984;2022-08-16T04:57:02;100074.81;;;20.14;93.06
11712;BME280;5912;51.034;6.984;2022-08-16T04:59:27;100088.09;;;20.19;92.87
11712;BME280;5912;51.034;6.984;2022-08-16T05:01:53;100080.63;;;20.21;92.66
11712;BME280;5912;51.034;6.984;2022-08-16T05:04:22;100085.97;;;20.21;93.00
11712;BME280;5912;51.034;6.984;2022-08-16T05:06:47;100084.31;;;20.25;92.55
11712;BME280;5912;51.034;6.984;2022-08-16T05:09:13;100088.84;;;20.29;92.24
11712;BME280;5912;51.034;6.984;2022-08-16T05:11:38;100089.63;;;20.30;92.32
11712;BME280;5912;51.034;6.984;2022-08-16T05:14:04;100092.81;;;20.32;92.41
11712;BME280;5912;51.034;6.984;2022-08-16T05:16:29;100107.44;;;20.39;92.29
11712;BME280;5912;51.034;6.984;2022-08-16T05:18:57;100093.03;;;20.40;91.82
11712;BME280;5912;51.034;6.984;2022-08-16T05:21:23;100103.09;;;20.48;91.92
11712;BME280;5912;51.034;6.984;2022-08-16T05:23:50;100098.53;;;20.49;91.71
11712;BME280;5912;51.034;6.984;2022-08-16T05:26:16;100102.69;;;20.60;91.33
11712;BME280;5912;51.034;6.984;2022-08-16T05:28:41;100109.09;;;20.64;91.03
11712;BME280;5912;51.034;6.984;2022-08-16T05:31:06;100071.53;;;20.50;90.40
11712;BME280;5912;51.034;6.984;2022-08-16T05:33:32;100103.13;;;20.72;90.11
11712;BME280;5912;51.034;6.984;2022-08-16T05:35:57;100094.78;;;20.79;90.02
11712;BME280;5912;51.034;6.984;2022-08-16T05:38:23;100103.53;;;20.84;89.33
11712;BME280;5912;51.034;6.984;2022-08-16T05:40:55;100105.88;;;20.91;89.72
11712;BME280;5912;51.034;6.984;2022-08-16T05:43:21;100111.44;;;20.94;89.07
11712;BME280;5912;51.034;6.984;2022-08-16T05:45:46;100111.72;;;20.98;89.09
11712;BME280;5912;51.034;6.984;2022-08-16T05:48:12;100110.56;;;21.04;88.43
11712;BME280;5912;51.034;6.984;2022-08-16T05:50:38;100111.00;;;21.11;88.23
11712;BME280;5912;51.034;6.984;2022-08-16T05:53:04;100108.09;;;21.12;88.65
11712;BME280;5912;51.034;6.984;2022-08-16T05:55:29;100113.88;;;21.19;87.96
11712;BME280;5912;51.034;6.984;2022-08-16T05:57:55;100119.09;;;21.29;88.06
11712;BME280;5912;51.034;6.984;2022-08-16T06:00:20;100119.03;;;21.34;86.76
11712;BME280;5912;51.034;6.984;2022-08-16T06:02:45;100121.09;;;21.42;86.93
11712;BME280;5912;51.034;6.984;2022-08-16T06:05:11;100114.28;;;21.50;87.32
11712;BME280;5912;51.034;6.984;2022-08-16T06:07:37;100118.72;;;21.59;86.89
11712;BME280;5912;51.034;6.984;2022-08-16T06:10:03;100119.94;;;21.67;86.12
11712;BME280;5912;51.034;6.984;2022-08-16T06:12:29;100112.66;;;21.72;85.73
11712;BME280;5912;51.034;6.984;2022-08-16T06:14:57;100122.22;;;21.78;85.58
11712;BME280;5912;51.034;6.984;2022-08-16T06:17:23;100104.34;;;21.92;85.19
11712;BME280;5912;51.034;6.984;2022-08-16T06:19:48;100117.53;;;22.08;84.24
11712;BME280;5912;51.034;6.984;2022-08-16T06:22:14;100114.66;;;22.18;84.04
11712;BME280;5912;51.034;6.984;2022-08-16T06:24:39;100119.66;;;22.24;83.20
11712;BME280;5912;51.034;6.984;2022-08-16T06:27:04;100129.84;;;22.41;82.41
11712;BME280;5912;51.034;6.984;2022-08-16T06:29:30;100122.44;;;22.51;81.96
11712;BME280;5912;51.034;6.984;2022-08-16T06:31:55;100123.56;;;22.64;81.37
11712;BME280;5912;51.034;6.984;2022-08-16T06:34:20;100119.31;;;22.76;81.16
11712;BME280;5912;51.034;6.984;2022-08-16T06:36:46;100120.03;;;22.95;80.81
11712;BME280;5912;51.034;6.984;2022-08-16T06:39:11;100123.25;;;23.11;79.72
11712;BME280;5912;51.034;6.984;2022-08-16T06:41:37;100127.63;;;23.34;78.85
11712;BME280;5912;51.034;6.984;2022-08-16T06:44:02;100119.78;;;23.87;76.51
11712;BME280;5912;51.034;6.984;2022-08-16T06:46:34;100138.38;;;24.63;72.99
11712;BME280;5912;51.034;6.984;2022-08-16T06:49:02;100142.66;;;25.25;69.54
11712;BME280;5912;51.034;6.984;2022-08-16T06:51:28;100138.06;;;25.82;66.27
11712;BME280;5912;51.034;6.984;2022-08-16T06:53:53;100149.94;;;26.41;64.37
11712;BME280;5912;51.034;6.984;2022-08-16T06:56:18;100153.97;;;26.98;62.15
11712;BME280;5912;51.034;6.984;2022-08-16T06:58:44;100158.66;;;27.55;59.19
11712;BME280;5912;51.034;6.984;2022-08-16T07:01:09;100163.44;;;28.00;56.30
11712;BME280;5912;51.034;6.984;2022-08-16T07:03:35;100162.50;;;28.37;54.75
11712;BME280;5912;51.034;6.984;2022-08-16T07:06:00;100166.91;;;28.62;52.77
11712;BME280;5912;51.034;6.984;2022-08-16T07:08:26;100168.44;;;28.95;50.96
11712;BME280;5912;51.034;6.984;2022-08-16T07:10:52;100171.66;;;29.10;50.85
11712;BME280;5912;51.034;6.984;2022-08-16T07:13:18;100171.53;;;29.30;50.13
11712;BME280;5912;51.034;6.984;2022-08-16T07:15:44;100179.78;;;29.58;49.87
11712;BME280;5912;51.034;6.984;2022-08-16T07:18:10;100182.16;;;29.83;49.03
11712;BME280;5912;51.034;6.984;2022-08-16T07:20:39;100182.53;;;30.21;47.88
11712;BME280;5912;51.034;6.984;2022-08-16T07:23:05;100183.50;;;30.57;46.85
11712;BME280;5912;51.034;6.984;2022-08-16T07:25:32;100169.75;;;30.93;45.26
11712;BME280;5912;51.034;6.984;2022-08-16T07:27:58;100190.78;;;31.27;44.98
11712;BME280;5912;51.034;6.984;2022-08-16T07:30:24;100186.94;;;31.43;43.10
11712;BME280;5912;51.034;6.984;2022-08-16T07:32:50;100186.50;;;31.57;43.65
11712;BME280;5912;51.034;6.984;2022-08-16T07:35:16;100183.78;;;31.92;43.36
11712;BME280;5912;51.034;6.984;2022-08-16T07:37:42;100178.00;;;32.31;42.87
11712;BME280;5912;51.034;6.984;2022-08-16T07:40:08;100178.13;;;32.76;42.20
11712;BME280;5912;51.034;6.984;2022-08-16T07:42:33;100176.88;;;33.16;41.15
11712;BME280;5912;51.034;6.984;2022-08-16T07:44:59;100174.47;;;33.37;39.14
11712;BME280;5912;51.034;6.984;2022-08-16T07:47:24;100176.13;;;33.67;39.19
11712;BME280;5912;51.034;6.984;2022-08-16T07:49:50;100179.69;;;33.97;38.17
11712;BME280;5912;51.034;6.984;2022-08-16T07:52:15;100185.38;;;34.15;37.43
11712;BME280;5912;51.034;6.984;2022-08-16T07:54:40;100178.63;;;34.38;38.21
11712;BME280;5912;51.034;6.984;2022-08-16T07:57:06;100174.19;;;34.57;37.38
11712;BME280;5912;51.034;6.984;2022-08-16T07:59:31;100189.28;;;34.87;36.17
11712;BME280;5912;51.034;6.984;2022-08-16T08:01:56;100193.44;;;35.07;36.27
11712;BME280;5912;51.034;6.984;2022-08-16T08:04:22;100197.94;;;35.33;36.08
11712;BME280;5912;51.034;6.984;2022-08-16T08:06:47;100197.81;;;35.69;34.66
11712;BME280;5912;51.034;6.984;2022-08-16T08:09:12;100206.53;;;35.89;34.77
11712;BME280;5912;51.034;6.984;2022-08-16T08:11:38;100192.94;;;36.00;34.80
11712;BME280;5912;51.034;6.984;2022-08-16T08:14:04;100192.09;;;35.89;33.71
11712;BME280;5912;51.034;6.984;2022-08-16T08:16:30;100176.81;;;35.88;34.65
11712;BME280;5912;51.034;6.984;2022-08-16T08:18:57;100191.06;;;36.25;34.26
11712;BME280;5912;51.034;6.984;2022-08-16T08:21:23;100195.50;;;36.61;34.05
11712;BME280;5912;51.034;6.984;2022-08-16T08:23:50;100194.38;;;36.76;33.30
11712;BME280;5912;51.034;6.984;2022-08-16T08:26:15;100183.78;;;36.74;32.72
11712;BME280;5912;51.034;6.984;2022-08-16T08:28:41;100202.63;;;37.04;33.36
11712;BME280;5912;51.034;6.984;2022-08-16T08:31:07;100207.34;;;37.42;32.14
11712;BME280;5912;51.034;6.984;2022-08-16T08:33:33;100218.31;;;37.70;31.66
11712;BME280;5912;51.034;6.984;2022-08-16T08:35:59;100224.50;;;38.02;31.17
11712;BME280;5912;51.034;6.984;2022-08-16T08:38:26;100219.75;;;38.24;31.07
11712;BME280;5912;51.034;6.984;2022-08-16T08:40:52;100224.03;;;38.28;30.40
11712;BME280;5912;51.034;6.984;2022-08-16T08:43:18;100226.00;;;38.28;30.37
11712;BME280;5912;51.034;6.984;2022-08-16T08:45:43;100220.91;;;38.19;30.67
11712;BME280;5912;51.034;6.984;2022-08-16T08:48:09;100216.94;;;38.31;30.99
11712;BME280;5912;51.034;6.984;2022-08-16T08:50:34;100226.75;;;38.35;30.05
11712;BME280;5912;51.034;6.984;2022-08-16T08:53:00;100228.00;;;38.10;30.39
11712;BME280;5912;51.034;6.984;2022-08-16T08:55:27;100238.56;;;38.11;30.50
11712;BME280;5912;51.034;6.984;2022-08-16T08:57:53;100216.31;;;37.85;30.96
11712;BME280;5912;51.034;6.984;2022-08-16T09:00:20;100226.47;;;37.98;31.02
11712;BME280;5912;51.034;6.984;2022-08-16T09:02:48;100226.81;;;38.21;30.92
11712;BME280;5912;51.034;6.984;2022-08-16T09:05:15;100231.41;;;38.45;30.91
11712;BME280;5912;51.034;6.984;2022-08-16T09:07:41;100228.59;;;38.60;29.81
11712;BME280;5912;51.034;6.984;2022-08-16T09:10:07;100238.78;;;38.66;29.67
11712;BME280;5912;51.034;6.984;2022-08-16T09:12:33;100239.56;;;38.70;30.69
11712;BME280;5912;51.034;6.984;2022-08-16T09:14:59;100237.44;;;38.92;30.55
11712;BME280;5912;51.034;6.984;2022-08-16T09:17:24;100235.00;;;39.08;29.41
11712;BME280;5912;51.034;6.984;2022-08-16T09:19:50;100206.38;;;39.02;28.82
11712;BME280;5912;51.034;6.984;2022-08-16T09:22:16;100235.78;;;39.08;29.40
11712;BME280;5912;51.034;6.984;2022-08-16T09:24:43;100238.56;;;39.05;29.01
11712;BME280;5912;51.034;6.984;2022-08-16T09:27:09;100246.88;;;38.91;29.28
11712;BME280;5912;51.034;6.984;2022-08-16T09:29:34;100239.81;;;38.90;29.29
11712;BME280;5912;51.034;6.984;2022-08-16T09:31:59;100250.88;;;38.83;29.67
11712;BME280;5912;51.034;6.984;2022-08-16T09:34:25;100247.47;;;38.58;30.06
11712;BME280;5912;51.034;6.984;2022-08-16T09:36:50;100238.03;;;38.55;30.14
11712;BME280;5912;51.034;6.984;2022-08-16T09:39:15;100234.09;;;38.63;29.69
11712;BME280;5912;51.034;6.984;2022-08-16T09:41:43;100236.44;;;38.61;29.97
11712;BME280;5912;51.034;6.984;2022-08-16T09:44:11;100225.16;;;38.41;30.03
11712;BME280;5912;51.034;6.984;2022-08-16T09:46:37;100236.47;;;38.54;29.98
11712;BME280;5912;51.034;6.984;2022-08-16T09:49:02;100235.31;;;38.59;29.67
11712;BME280;5912;51.034;6.984;2022-08-16T09:51:27;100236.91;;;38.45;29.70
11712;BME280;5912;51.034;6.984;2022-08-16T09:53:53;100232.94;;;38.54;30.44
11712;BME280;5912;51.034;6.984;2022-08-16T09:56:31;100180.53;;;38.16;28.98
11712;BME280;5912;51.034;6.984;2022-08-16T09:58:58;100242.38;;;38.53;29.28
11712;BME280;5912;51.034;6.984;2022-08-16T10:01:24;100234.47;;;38.69;28.47
11712;BME280;5912;51.034;6.984;2022-08-16T10:03:51;100238.28;;;38.82;28.88
11712;BME280;5912;51.034;6.984;2022-08-16T10:06:20;100234.19;;;39.11;28.42
11712;BME280;5912;51.034;6.984;2022-08-16T10:08:49;100237.78;;;39.52;28.73
11712;BME280;5912;51.034;6.984;2022-08-16T10:11:16;100228.66;;;39.62;28.69
11712;BME280;5912;51.034;6.984;2022-08-16T10:13:59;100224.25;;;39.68;28.53
11712;BME280;5912;51.034;6.984;2022-08-16T10:16:25;100219.84;;;39.77;27.33
11712;BME280;5912;51.034;6.984;2022-08-16T10:18:51;100215.78;;;39.93;27.18
11712;BME280;5912;51.034;6.984;2022-08-16T10:21:16;100219.81;;;39.81;28.11
11712;BME280;5912;51.034;6.984;2022-08-16T10:23:43;100225.09;;;40.02;27.78
11712;BME280;5912;51.034;6.984;2022-08-16T10:26:08;100225.38;;;40.45;27.00
11712;BME280;5912;51.034;6.984;2022-08-16T10:28:35;100214.81;;;40.66;26.75
11712;BME280;5912;51.034;6.984;2022-08-16T10:31:01;100207.22;;;40.47;26.89
11712;BME280;5912;51.034;6.984;2022-08-16T10:33:27;100214.72;;;40.13;27.46
11712;BME280;5912;51.034;6.984;2022-08-16T10:35:53;100201.13;;;39.99;27.64
11712;BME280;5912;51.034;6.984;2022-08-16T10:38:18;100218.31;;;40.10;26.54
11712;BME280;5912;51.034;6.984;2022-08-16T10:40:44;100227.25;;;40.18;26.48
11712;BME280;5912;51.034;6.984;2022-08-16T10:43:10;100216.88;;;40.32;26.97
11712;BME280;5912;51.034;6.984;2022-08-16T10:45:36;100221.63;;;40.58;25.74
11712;BME280;5912;51.034;6.984;2022-08-16T10:48:02;100207.31;;;40.67;26.56
11712;BME280;5912;51.034;6.984;2022-08-16T10:50:31;100222.63;;;40.98;25.07
11712;BME280;5912;51.034;6.984;2022-08-16T10:52:57;100226.38;;;41.11;25.37
11712;BME280;5912;51.034;6.984;2022-08-16T10:55:23;100226.75;;;41.13;24.97
11712;BME280;5912;51.034;6.984;2022-08-16T10:57:48;100220.63;;;41.25;25.53
11712;BME280;5912;51.034;6.984;2022-08-16T11:00:16;100222.72;;;41.64;25.66
11712;BME280;5912;51.034;6.984;2022-08-16T11:02:42;100204.59;;;41.82;24.88
11712;BME280;5912;51.034;6.984;2022-08-16T11:05:10;100228.59;;;42.28;23.55
11712;BME280;5912;51.034;6.984;2022-08-16T11:07:38;100221.75;;;42.52;24.25
11712;BME280;5912;51.034;6.984;2022-08-16T11:10:04;100225.81;;;42.64;23.60
11712;BME280;5912;51.034;6.984;2022-08-16T11:12:30;100220.25;;;42.83;23.50
11712;BME280;5912;51.034;6.984;2022-08-16T11:14:55;100230.38;;;43.06;22.65
11712;BME280;5912;51.034;6.984;2022-08-16T11:17:21;100221.72;;;42.88;22.97
11712;BME280;5912;51.034;6.984;2022-08-16T11:19:46;100221.06;;;42.84;23.41
11712;BME280;5912;51.034;6.984;2022-08-16T11:22:11;100222.00;;;42.77;22.06
11712;BME280;5912;51.034;6.984;2022-08-16T11:24:37;100233.31;;;42.83;21.72
11712;BME280;5912;51.034;6.984;2022-08-16T11:27:08;100230.25;;;42.61;22.41
11712;BME280;5912;51.034;6.984;2022-08-16T11:29:34;100235.31;;;42.47;22.45
11712;BME280;5912;51.034;6.984;2022-08-16T11:32:01;100227.50;;;41.83;22.83
11712;BME280;5912;51.034;6.984;2022-08-16T11:34:26;100246.88;;;41.79;23.70
11712;BME280;5912;51.034;6.984;2022-08-16T11:36:52;100217.00;;;41.74;23.59
11712;BME280;5912;51.034;6.984;2022-08-16T11:39:17;100218.03;;;42.03;23.17
11712;BME280;5912;51.034;6.984;2022-08-16T11:41:43;100228.75;;;42.57;22.89
11712;BME280;5912;51.034;6.984;2022-08-16T11:44:08;100236.44;;;42.85;22.35
11712;BME280;5912;51.034;6.984;2022-08-16T11:46:35;100220.72;;;43.14;22.43
11712;BME280;5912;51.034;6.984;2022-08-16T11:49:02;100229.63;;;43.21;20.44
11712;BME280;5912;51.034;6.984;2022-08-16T11:51:28;100226.69;;;43.28;21.12
11712;BME280;5912;51.034;6.984;2022-08-16T11:53:54;100216.28;;;42.84;21.70
11712;BME280;5912;51.034;6.984;2022-08-16T11:56:20;100229.94;;;43.07;21.32
11712;BME280;5912;51.034;6.984;2022-08-16T11:58:45;100225.28;;;43.36;22.01
11712;BME280;5912;51.034;6.984;2022-08-16T12:01:11;100227.63;;;43.54;21.25
11712;BME280;5912;51.034;6.984;2022-08-16T12:03:37;100210.81;;;43.61;20.83
11712;BME280;5912;51.034;6.984;2022-08-16T12:06:12;100212.38;;;43.91;21.05
11712;BME280;5912;51.034;6.984;2022-08-16T12:08:39;100224.41;;;44.13;21.46
11712;BME280;5912;51.034;6.984;2022-08-16T12:11:05;100225.41;;;44.19;21.18
11712;BME280;5912;51.034;6.984;2022-08-16T12:13:31;100207.41;;;43.69;20.46
11712;BME280;5912;51.034;6.984;2022-08-16T12:15:56;100220.44;;;43.40;20.98
11712;BME280;5912;51.034;6.984;2022-08-16T12:18:22;100234.84;;;42.68;21.50
11712;BME280;5912;51.034;6.984;2022-08-16T12:20:48;100233.75;;;42.81;22.28
11712;BME280;5912;51.034;6.984;2022-08-16T12:23:14;100203.59;;;43.19;21.23
11712;BME280;5912;51.034;6.984;2022-08-16T12:25:40;100217.91;;;43.91;20.29
11712;BME280;5912;51.034;6.984;2022-08-16T12:28:07;100217.25;;;44.53;19.92
11712;BME280;5912;51.034;6.984;2022-08-16T12:30:35;100226.72;;;44.93;19.52
11712;BME280;5912;51.034;6.984;2022-08-16T12:33:03;100216.56;;;44.24;19.22
11712;BME280;5912;51.034;6.984;2022-08-16T12:35:31;100227.84;;;43.59;19.44
11712;BME280;5912;51.034;6.984;2022-08-16T12:37:58;100215.75;;;42.89;20.85
11712;BME280;5912;51.034;6.984;2022-08-16T12:40:29;100222.84;;;42.38;21.04
11712;BME280;5912;51.034;6.984;2022-08-16T12:42:58;100171.38;;;41.66;21.54
11712;BME280;5912;51.034;6.984;2022-08-16T12:45:26;100228.31;;;41.14;23.15
11712;BME280;5912;51.034;6.984;2022-08-16T12:47:51;100212.59;;;39.94;23.45
11712;BME280;5912;51.034;6.984;2022-08-16T12:50:40;100219.94;;;38.68;24.56
11712;BME280;5912;51.034;6.984;2022-08-16T12:53:05;100216.63;;;38.18;26.01
11712;BME280;5912;51.034;6.984;2022-08-16T12:55:31;100208.78;;;38.13;26.14